Chandler Field
KAXN : now visible

Airfield :











YOU CAN JOIN US ON...

 
LOGIN :

Register | Disclaimer

   EN    FR    IT 

 









Legend :    VFR   Marginal VFR   IFR   Intensive IFR   Very Intensive IFR
Visi :
Ceiling :
>= 8 km
>= 3000ft
5 to 8 km
1000 to 3000 ft
1500m to 5 km
500 to 1000 ft
800 to 1500m
200 to 500 ft
< 800m
< 200 ft
Symbols :   Thunderstorms  Fog  Heavy snow  Heavy precipitations  Wind > 20 kt






- Airport Elevation : 1425 ft


KAXN - Chandler Field

CURRENT METAR :
  • 160816Z AUTO 31007KT 1/4SM FG VV002 02/01 A3014 RMK AO2 T00170011

EXPIRED METARs :
  • 160809Z AUTO 30006KT 3/4SM BR VV002 01/01 A3014 RMK AO2 T00110011
  • 160801Z AUTO 29006KT 4SM BR BKN002 01/01 A3014 RMK AO2 T00110006
  • 160653Z AUTO 31005KT 10SM CLR 01/00 A3015 RMK AO2 SLP225 T00060000
  • 160553Z AUTO 31006KT 10SM CLR 01/01 A3015 RMK AO2 SLP227 T00110006 10067 20011 400671006 50007

TAF KAXN
Valid from the 16 at 06:00 until the 17 at 06:00 UTC


160520Z 1606/1706 32005KT 5SM BR FEW006 SCT025
TEMPO 1607/1611 2SM BR
FM161200 35009KT P6SM BKN035
KZMP FIR / North America



MET'MAP, your aeronautical weather chart ! - Copyright ORBIFLY December 2007 - Disclaimer

ORBIFLY MET'MAP TEAM :

Programming & Development : Alexandra Zaïnal
Concept & original design : Baudouin d'Aumeries
Assistance for programming : Marc-Olivier Méhu
Technical & hardware support : Manuel Goepfert

Contact : metmap@orbifly.com




SOURCES & CREDITS :

   NOAA       Earth
Advisory